MDW weather

Chicago Midway International Airport
Chicago, Illinois, United States

Public forecast

Using degrees Fahrenheit for public forecast. Weather courtesy of forecast.io.

Current aviation weather report (METAR) for Chicago Midway International Airport

Retrieved 2020/01/29 03:53 UTC (55 minutes ago):

KMDW 290353Z 01006KT 10SM OVC021 00/M05 A3012 RMK AO2 SNE43 SLP212 P0000 T00001050

Aviation forecast (TAF) for Chicago Midway International Airport

Retrieved 2020-01-29 00:28 UTC (4 hours ago):

TAF KMDW 282325Z 2900/3006 32004KT P6SM OVC018 FM290300 01003KT P6SM OVC020 FM291800 04005KT P6SM OVC023 PROB30 2918/2924 P6SM -SHSN